sensor_id;sensor_type;location;lat;lon;timestamp;P1;durP1;ratioP1;P2;durP2;ratioP2
61471;SDS011;47337;54.068;12.114;2023-06-22T00:01:11;15.60;;;10.50;;
61471;SDS011;47337;54.068;12.114;2023-06-22T00:03:36;16.17;;;10.35;;
61471;SDS011;47337;54.068;12.114;2023-06-22T00:06:01;12.82;;;10.77;;
61471;SDS011;47337;54.068;12.114;2023-06-22T00:08:28;14.38;;;10.80;;
61471;SDS011;47337;54.068;12.114;2023-06-22T00:10:54;14.73;;;10.68;;
61471;SDS011;47337;54.068;12.114;2023-06-22T00:13:19;13.82;;;11.00;;
61471;SDS011;47337;54.068;12.114;2023-06-22T00:15:44;14.18;;;10.95;;
61471;SDS011;47337;54.068;12.114;2023-06-22T00:18:12;12.85;;;9.80;;
61471;SDS011;47337;54.068;12.114;2023-06-22T00:20:38;16.17;;;11.32;;
61471;SDS011;47337;54.068;12.114;2023-06-22T00:23:04;15.15;;;10.75;;
61471;SDS011;47337;54.068;12.114;2023-06-22T00:25:35;16.00;;;11.38;;
61471;SDS011;47337;54.068;12.114;2023-06-22T00:28:01;13.00;;;10.05;;
61471;SDS011;47337;54.068;12.114;2023-06-22T00:30:29;16.95;;;10.95;;
61471;SDS011;47337;54.068;12.114;2023-06-22T00:32:55;12.98;;;10.75;;
61471;SDS011;47337;54.068;12.114;2023-06-22T00:35:23;11.45;;;9.88;;
61471;SDS011;47337;54.068;12.114;2023-06-22T00:37:56;11.35;;;10.10;;
61471;SDS011;47337;54.068;12.114;2023-06-22T00:40:30;13.65;;;9.98;;
61471;SDS011;47337;54.068;12.114;2023-06-22T00:42:55;14.95;;;9.82;;
61471;SDS011;47337;54.068;12.114;2023-06-22T00:45:21;13.93;;;10.80;;
61471;SDS011;47337;54.068;12.114;2023-06-22T00:47:49;14.35;;;10.60;;
61471;SDS011;47337;54.068;12.114;2023-06-22T00:50:16;13.45;;;10.55;;
61471;SDS011;47337;54.068;12.114;2023-06-22T00:52:43;12.30;;;9.80;;
61471;SDS011;47337;54.068;12.114;2023-06-22T00:55:09;12.95;;;9.80;;
61471;SDS011;47337;54.068;12.114;2023-06-22T00:57:34;14.98;;;10.27;;
61471;SDS011;47337;54.068;12.114;2023-06-22T01:00:02;12.77;;;10.88;;
61471;SDS011;47337;54.068;12.114;2023-06-22T01:02:38;16.70;;;10.68;;
61471;SDS011;47337;54.068;12.114;2023-06-22T01:05:04;14.20;;;10.45;;
61471;SDS011;47337;54.068;12.114;2023-06-22T01:12:24;15.52;;;10.88;;
61471;SDS011;47337;54.068;12.114;2023-06-22T01:14:52;14.70;;;11.85;;
61471;SDS011;47337;54.068;12.114;2023-06-22T01:17:19;15.90;;;11.85;;
61471;SDS011;47337;54.068;12.114;2023-06-22T01:22:11;15.02;;;12.05;;
61471;SDS011;47337;54.068;12.114;2023-06-22T01:27:23;15.60;;;11.63;;
61471;SDS011;47337;54.068;12.114;2023-06-22T01:29:56;16.45;;;11.25;;
61471;SDS011;47337;54.068;12.114;2023-06-22T01:32:35;15.85;;;12.45;;
61471;SDS011;47337;54.068;12.114;2023-06-22T01:35:01;16.08;;;11.55;;
61471;SDS011;47337;54.068;12.114;2023-06-22T01:37:30;15.98;;;12.70;;
61471;SDS011;47337;54.068;12.114;2023-06-22T01:39:57;16.50;;;12.18;;
61471;SDS011;47337;54.068;12.114;2023-06-22T01:42:25;16.90;;;11.77;;
61471;SDS011;47337;54.068;12.114;2023-06-22T01:44:54;16.70;;;12.82;;
61471;SDS011;47337;54.068;12.114;2023-06-22T01:47:22;14.93;;;12.00;;
61471;SDS011;47337;54.068;12.114;2023-06-22T01:49:47;20.23;;;12.73;;
61471;SDS011;47337;54.068;12.114;2023-06-22T01:52:13;16.83;;;12.40;;
61471;SDS011;47337;54.068;12.114;2023-06-22T01:54:39;17.63;;;11.93;;
61471;SDS011;47337;54.068;12.114;2023-06-22T01:57:05;17.30;;;12.52;;
61471;SDS011;47337;54.068;12.114;2023-06-22T02:02:14;19.42;;;12.20;;
61471;SDS011;47337;54.068;12.114;2023-06-22T02:04:47;19.42;;;13.82;;
61471;SDS011;47337;54.068;12.114;2023-06-22T02:07:15;18.23;;;13.80;;
61471;SDS011;47337;54.068;12.114;2023-06-22T02:09:43;19.90;;;13.82;;
61471;SDS011;47337;54.068;12.114;2023-06-22T02:12:10;18.15;;;13.48;;
61471;SDS011;47337;54.068;12.114;2023-06-22T02:14:38;17.48;;;12.88;;
61471;SDS011;47337;54.068;12.114;2023-06-22T02:17:04;17.45;;;13.63;;
61471;SDS011;47337;54.068;12.114;2023-06-22T02:19:35;21.52;;;13.90;;
61471;SDS011;47337;54.068;12.114;2023-06-22T02:22:01;16.52;;;12.00;;
61471;SDS011;47337;54.068;12.114;2023-06-22T02:24:26;16.55;;;12.90;;
61471;SDS011;47337;54.068;12.114;2023-06-22T02:26:51;18.25;;;13.50;;
61471;SDS011;47337;54.068;12.114;2023-06-22T02:29:19;16.75;;;12.20;;
61471;SDS011;47337;54.068;12.114;2023-06-22T02:31:44;16.65;;;12.60;;
61471;SDS011;47337;54.068;12.114;2023-06-22T02:34:10;16.60;;;12.32;;
61471;SDS011;47337;54.068;12.114;2023-06-22T02:36:35;17.65;;;11.35;;
61471;SDS011;47337;54.068;12.114;2023-06-22T02:39:00;17.42;;;12.25;;
61471;SDS011;47337;54.068;12.114;2023-06-22T02:41:26;16.02;;;11.55;;
61471;SDS011;47337;54.068;12.114;2023-06-22T02:43:51;17.95;;;12.02;;
61471;SDS011;47337;54.068;12.114;2023-06-22T02:46:17;15.50;;;12.02;;
61471;SDS011;47337;54.068;12.114;2023-06-22T02:48:45;13.60;;;11.00;;
61471;SDS011;47337;54.068;12.114;2023-06-22T02:51:12;16.63;;;12.07;;
61471;SDS011;47337;54.068;12.114;2023-06-22T02:53:37;15.88;;;11.43;;
61471;SDS011;47337;54.068;12.114;2023-06-22T02:56:09;18.65;;;12.05;;
61471;SDS011;47337;54.068;12.114;2023-06-22T02:58:37;17.15;;;12.10;;
61471;SDS011;47337;54.068;12.114;2023-06-22T03:01:05;16.08;;;11.82;;
61471;SDS011;47337;54.068;12.114;2023-06-22T03:03:31;14.77;;;11.23;;
61471;SDS011;47337;54.068;12.114;2023-06-22T03:05:56;14.68;;;11.30;;
61471;SDS011;47337;54.068;12.114;2023-06-22T03:08:21;17.08;;;11.43;;
61471;SDS011;47337;54.068;12.114;2023-06-22T03:10:49;17.92;;;12.05;;
61471;SDS011;47337;54.068;12.114;2023-06-22T03:13:14;15.13;;;11.07;;
61471;SDS011;47337;54.068;12.114;2023-06-22T03:15:40;16.00;;;11.20;;
61471;SDS011;47337;54.068;12.114;2023-06-22T03:18:05;15.68;;;10.85;;
61471;SDS011;47337;54.068;12.114;2023-06-22T03:20:33;12.20;;;8.98;;
61471;SDS011;47337;54.068;12.114;2023-06-22T03:22:58;12.48;;;9.95;;
61471;SDS011;47337;54.068;12.114;2023-06-22T03:25:28;11.23;;;8.88;;
61471;SDS011;47337;54.068;12.114;2023-06-22T03:27:54;11.68;;;8.80;;
61471;SDS011;47337;54.068;12.114;2023-06-22T03:30:19;11.77;;;9.00;;
61471;SDS011;47337;54.068;12.114;2023-06-22T03:32:44;13.15;;;10.13;;
61471;SDS011;47337;54.068;12.114;2023-06-22T03:35:11;14.38;;;9.75;;
61471;SDS011;47337;54.068;12.114;2023-06-22T03:37:39;11.70;;;9.60;;
61471;SDS011;47337;54.068;12.114;2023-06-22T03:40:05;11.73;;;8.63;;
61471;SDS011;47337;54.068;12.114;2023-06-22T03:42:30;12.55;;;9.05;;
61471;SDS011;47337;54.068;12.114;2023-06-22T03:44:58;11.70;;;8.93;;
61471;SDS011;47337;54.068;12.114;2023-06-22T03:47:25;12.00;;;8.38;;
61471;SDS011;47337;54.068;12.114;2023-06-22T03:49:51;13.05;;;8.95;;
61471;SDS011;47337;54.068;12.114;2023-06-22T03:52:22;10.68;;;7.85;;
61471;SDS011;47337;54.068;12.114;2023-06-22T03:54:47;11.30;;;8.70;;
61471;SDS011;47337;54.068;12.114;2023-06-22T03:57:15;10.75;;;8.77;;
61471;SDS011;47337;54.068;12.114;2023-06-22T03:59:40;9.88;;;7.97;;
61471;SDS011;47337;54.068;12.114;2023-06-22T04:02:05;10.57;;;7.78;;
61471;SDS011;47337;54.068;12.114;2023-06-22T04:04:30;9.60;;;7.18;;
61471;SDS011;47337;54.068;12.114;2023-06-22T04:07:01;9.18;;;7.50;;
61471;SDS011;47337;54.068;12.114;2023-06-22T04:09:26;12.40;;;7.85;;
61471;SDS011;47337;54.068;12.114;2023-06-22T04:11:51;9.55;;;7.20;;
61471;SDS011;47337;54.068;12.114;2023-06-22T04:14:17;8.45;;;6.60;;
61471;SDS011;47337;54.068;12.114;2023-06-22T04:16:42;9.00;;;6.88;;
61471;SDS011;47337;54.068;12.114;2023-06-22T04:19:07;8.20;;;6.35;;
61471;SDS011;47337;54.068;12.114;2023-06-22T04:21:38;10.50;;;6.60;;
61471;SDS011;47337;54.068;12.114;2023-06-22T04:24:03;9.43;;;6.18;;
61471;SDS011;47337;54.068;12.114;2023-06-22T04:26:28;7.50;;;5.97;;
61471;SDS011;47337;54.068;12.114;2023-06-22T04:28:54;6.30;;;5.70;;
61471;SDS011;47337;54.068;12.114;2023-06-22T04:31:20;9.45;;;5.97;;
61471;SDS011;47337;54.068;12.114;2023-06-22T04:33:45;7.80;;;5.30;;
61471;SDS011;47337;54.068;12.114;2023-06-22T04:36:11;8.23;;;5.75;;
61471;SDS011;47337;54.068;12.114;2023-06-22T04:38:39;7.05;;;5.75;;
61471;SDS011;47337;54.068;12.114;2023-06-22T04:41:05;7.30;;;5.43;;
61471;SDS011;47337;54.068;12.114;2023-06-22T04:43:31;6.18;;;5.07;;
61471;SDS011;47337;54.068;12.114;2023-06-22T04:45:57;5.45;;;4.95;;
61471;SDS011;47337;54.068;12.114;2023-06-22T04:48:30;5.93;;;4.28;;
61471;SDS011;47337;54.068;12.114;2023-06-22T04:50:59;8.27;;;5.20;;
61471;SDS011;47337;54.068;12.114;2023-06-22T04:53:28;6.95;;;5.10;;
61471;SDS011;47337;54.068;12.114;2023-06-22T04:55:54;4.70;;;4.22;;
61471;SDS011;47337;54.068;12.114;2023-06-22T04:58:20;5.28;;;4.72;;
61471;SDS011;47337;54.068;12.114;2023-06-22T05:00:46;5.43;;;4.72;;
61471;SDS011;47337;54.068;12.114;2023-06-22T05:03:11;5.28;;;4.40;;
61471;SDS011;47337;54.068;12.114;2023-06-22T05:05:36;7.43;;;4.50;;
61471;SDS011;47337;54.068;12.114;2023-06-22T05:08:02;4.90;;;4.35;;
61471;SDS011;47337;54.068;12.114;2023-06-22T05:10:27;5.85;;;4.35;;
61471;SDS011;47337;54.068;12.114;2023-06-22T05:12:53;6.18;;;4.88;;
61471;SDS011;47337;54.068;12.114;2023-06-22T05:15:18;6.70;;;5.40;;
61471;SDS011;47337;54.068;12.114;2023-06-22T05:17:50;6.57;;;5.20;;
61471;SDS011;47337;54.068;12.114;2023-06-22T05:20:15;7.22;;;4.90;;
61471;SDS011;47337;54.068;12.114;2023-06-22T05:22:43;5.72;;;4.68;;
61471;SDS011;47337;54.068;12.114;2023-06-22T05:25:08;6.38;;;4.15;;
61471;SDS011;47337;54.068;12.114;2023-06-22T05:27:34;5.68;;;4.30;;
61471;SDS011;47337;54.068;12.114;2023-06-22T05:30:04;10.55;;;4.80;;
61471;SDS011;47337;54.068;12.114;2023-06-22T05:32:29;8.73;;;5.10;;
61471;SDS011;47337;54.068;12.114;2023-06-22T05:34:54;7.10;;;4.93;;
61471;SDS011;47337;54.068;12.114;2023-06-22T05:37:20;7.10;;;4.68;;
61471;SDS011;47337;54.068;12.114;2023-06-22T05:39:45;6.70;;;4.80;;
61471;SDS011;47337;54.068;12.114;2023-06-22T05:42:10;10.85;;;5.30;;
61471;SDS011;47337;54.068;12.114;2023-06-22T05:44:35;4.75;;;4.20;;
61471;SDS011;47337;54.068;12.114;2023-06-22T05:47:04;8.80;;;4.97;;
61471;SDS011;47337;54.068;12.114;2023-06-22T05:49:29;9.27;;;6.07;;
61471;SDS011;47337;54.068;12.114;2023-06-22T05:51:58;9.18;;;5.50;;
61471;SDS011;47337;54.068;12.114;2023-06-22T05:54:28;10.18;;;5.70;;
61471;SDS011;47337;54.068;12.114;2023-06-22T05:56:54;9.80;;;5.38;;
61471;SDS011;47337;54.068;12.114;2023-06-22T05:59:22;8.75;;;5.28;;
61471;SDS011;47337;54.068;12.114;2023-06-22T06:01:47;10.52;;;5.93;;
61471;SDS011;47337;54.068;12.114;2023-06-22T06:04:18;8.18;;;5.03;;
61471;SDS011;47337;54.068;12.114;2023-06-22T06:06:46;8.60;;;5.13;;
61471;SDS011;47337;54.068;12.114;2023-06-22T06:09:12;6.32;;;4.90;;
61471;SDS011;47337;54.068;12.114;2023-06-22T06:11:40;7.90;;;4.32;;
61471;SDS011;47337;54.068;12.114;2023-06-22T06:14:07;9.07;;;5.10;;
61471;SDS011;47337;54.068;12.114;2023-06-22T06:16:33;12.23;;;4.70;;
61471;SDS011;47337;54.068;12.114;2023-06-22T06:18:58;7.40;;;4.07;;
61471;SDS011;47337;54.068;12.114;2023-06-22T06:21:23;12.30;;;3.95;;
61471;SDS011;47337;54.068;12.114;2023-06-22T06:23:49;4.35;;;3.30;;
61471;SDS011;47337;54.068;12.114;2023-06-22T06:26:14;4.55;;;3.22;;
61471;SDS011;47337;54.068;12.114;2023-06-22T06:28:43;4.63;;;3.35;;
61471;SDS011;47337;54.068;12.114;2023-06-22T06:31:09;6.32;;;3.30;;
61471;SDS011;47337;54.068;12.114;2023-06-22T06:33:34;4.35;;;2.80;;
61471;SDS011;47337;54.068;12.114;2023-06-22T06:36:00;4.57;;;3.40;;
61471;SDS011;47337;54.068;12.114;2023-06-22T06:38:28;5.30;;;2.97;;
61471;SDS011;47337;54.068;12.114;2023-06-22T06:40:53;8.40;;;3.38;;
61471;SDS011;47337;54.068;12.114;2023-06-22T06:43:18;7.13;;;3.50;;
61471;SDS011;47337;54.068;12.114;2023-06-22T06:45:44;4.82;;;3.10;;
61471;SDS011;47337;54.068;12.114;2023-06-22T06:48:09;4.55;;;2.90;;
61471;SDS011;47337;54.068;12.114;2023-06-22T06:50:35;4.90;;;3.15;;
61471;SDS011;47337;54.068;12.114;2023-06-22T06:53:00;4.78;;;3.30;;
61471;SDS011;47337;54.068;12.114;2023-06-22T06:55:25;7.45;;;3.28;;
61471;SDS011;47337;54.068;12.114;2023-06-22T06:57:50;3.95;;;3.15;;
61471;SDS011;47337;54.068;12.114;2023-06-22T07:00:17;4.97;;;3.30;;
61471;SDS011;47337;54.068;12.114;2023-06-22T07:02:45;4.30;;;2.97;;
61471;SDS011;47337;54.068;12.114;2023-06-22T07:05:12;3.67;;;2.70;;
61471;SDS011;47337;54.068;12.114;2023-06-22T07:07:38;4.78;;;2.75;;
61471;SDS011;47337;54.068;12.114;2023-06-22T07:10:04;5.10;;;3.00;;
61471;SDS011;47337;54.068;12.114;2023-06-22T07:12:29;4.38;;;2.42;;
61471;SDS011;47337;54.068;12.114;2023-06-22T07:14:57;3.13;;;2.22;;
61471;SDS011;47337;54.068;12.114;2023-06-22T07:17:25;3.08;;;2.00;;
61471;SDS011;47337;54.068;12.114;2023-06-22T07:19:50;3.35;;;2.00;;
61471;SDS011;47337;54.068;12.114;2023-06-22T07:22:16;4.07;;;2.30;;
61471;SDS011;47337;54.068;12.114;2023-06-22T07:24:44;3.47;;;2.42;;
61471;SDS011;47337;54.068;12.114;2023-06-22T07:27:11;3.45;;;1.98;;
61471;SDS011;47337;54.068;12.114;2023-06-22T07:29:37;3.75;;;2.30;;
61471;SDS011;47337;54.068;12.114;2023-06-22T07:32:04;3.20;;;1.95;;
61471;SDS011;47337;54.068;12.114;2023-06-22T07:34:30;4.03;;;2.58;;
61471;SDS011;47337;54.068;12.114;2023-06-22T07:36:55;3.15;;;2.30;;
61471;SDS011;47337;54.068;12.114;2023-06-22T07:39:20;2.20;;;1.88;;
61471;SDS011;47337;54.068;12.114;2023-06-22T07:41:50;3.30;;;1.90;;
61471;SDS011;47337;54.068;12.114;2023-06-22T07:44:16;2.65;;;2.08;;
61471;SDS011;47337;54.068;12.114;2023-06-22T07:46:41;2.35;;;1.67;;
61471;SDS011;47337;54.068;12.114;2023-06-22T07:49:06;4.30;;;1.60;;
61471;SDS011;47337;54.068;12.114;2023-06-22T07:51:33;2.47;;;1.65;;
61471;SDS011;47337;54.068;12.114;2023-06-22T07:53:58;3.47;;;1.90;;
61471;SDS011;47337;54.068;12.114;2023-06-22T07:56:26;2.90;;;1.90;;
61471;SDS011;47337;54.068;12.114;2023-06-22T07:58:51;3.40;;;1.90;;
61471;SDS011;47337;54.068;12.114;2023-06-22T08:01:19;2.80;;;1.70;;
61471;SDS011;47337;54.068;12.114;2023-06-22T08:03:47;2.42;;;1.52;;
61471;SDS011;47337;54.068;12.114;2023-06-22T08:06:12;1.98;;;1.67;;
61471;SDS011;47337;54.068;12.114;2023-06-22T08:08:37;1.55;;;1.40;;
61471;SDS011;47337;54.068;12.114;2023-06-22T08:11:03;1.83;;;1.50;;
61471;SDS011;47337;54.068;12.114;2023-06-22T08:13:28;2.63;;;2.05;;
61471;SDS011;47337;54.068;12.114;2023-06-22T08:15:54;3.38;;;2.20;;
61471;SDS011;47337;54.068;12.114;2023-06-22T08:18:19;3.63;;;2.22;;
61471;SDS011;47337;54.068;12.114;2023-06-22T08:20:45;2.92;;;2.25;;
61471;SDS011;47337;54.068;12.114;2023-06-22T08:23:10;3.03;;;1.70;;
61471;SDS011;47337;54.068;12.114;2023-06-22T08:25:35;3.87;;;2.80;;
61471;SDS011;47337;54.068;12.114;2023-06-22T08:28:01;3.10;;;2.10;;
61471;SDS011;47337;54.068;12.114;2023-06-22T08:30:26;4.28;;;2.58;;
61471;SDS011;47337;54.068;12.114;2023-06-22T08:32:54;4.45;;;2.40;;
61471;SDS011;47337;54.068;12.114;2023-06-22T08:35:22;3.83;;;2.10;;
61471;SDS011;47337;54.068;12.114;2023-06-22T08:37:50;3.45;;;2.13;;
61471;SDS011;47337;54.068;12.114;2023-06-22T08:40:20;4.53;;;2.53;;
61471;SDS011;47337;54.068;12.114;2023-06-22T08:42:46;3.60;;;2.50;;
61471;SDS011;47337;54.068;12.114;2023-06-22T08:45:12;2.83;;;2.20;;
61471;SDS011;47337;54.068;12.114;2023-06-22T08:47:37;5.82;;;2.75;;
61471;SDS011;47337;54.068;12.114;2023-06-22T08:50:03;2.65;;;1.80;;
61471;SDS011;47337;54.068;12.114;2023-06-22T08:52:31;4.63;;;1.90;;
61471;SDS011;47337;54.068;12.114;2023-06-22T08:54:56;4.07;;;2.17;;
61471;SDS011;47337;54.068;12.114;2023-06-22T08:57:23;4.30;;;2.28;;
61471;SDS011;47337;54.068;12.114;2023-06-22T08:59:48;3.03;;;1.73;;
61471;SDS011;47337;54.068;12.114;2023-06-22T09:02:13;2.45;;;1.75;;
61471;SDS011;47337;54.068;12.114;2023-06-22T09:04:39;3.53;;;2.03;;
61471;SDS011;47337;54.068;12.114;2023-06-22T09:07:04;4.37;;;1.77;;
61471;SDS011;47337;54.068;12.114;2023-06-22T09:09:29;3.53;;;2.17;;
61471;SDS011;47337;54.068;12.114;2023-06-22T09:11:55;4.18;;;2.28;;
61471;SDS011;47337;54.068;12.114;2023-06-22T09:14:20;3.05;;;2.10;;
61471;SDS011;47337;54.068;12.114;2023-06-22T09:16:45;3.38;;;1.90;;
61471;SDS011;47337;54.068;12.114;2023-06-22T09:19:10;2.78;;;2.00;;
61471;SDS011;47337;54.068;12.114;2023-06-22T09:21:36;2.40;;;1.75;;
61471;SDS011;47337;54.068;12.114;2023-06-22T09:24:01;5.07;;;2.20;;
61471;SDS011;47337;54.068;12.114;2023-06-22T09:26:29;2.17;;;1.73;;
61471;SDS011;47337;54.068;12.114;2023-06-22T09:28:54;6.30;;;2.38;;
61471;SDS011;47337;54.068;12.114;2023-06-22T09:31:19;3.35;;;2.28;;
61471;SDS011;47337;54.068;12.114;2023-06-22T09:33:50;3.80;;;2.22;;
61471;SDS011;47337;54.068;12.114;2023-06-22T09:36:16;3.53;;;2.33;;
61471;SDS011;47337;54.068;12.114;2023-06-22T09:38:42;2.88;;;1.80;;
61471;SDS011;47337;54.068;12.114;2023-06-22T09:41:07;3.90;;;2.00;;
61471;SDS011;47337;54.068;12.114;2023-06-22T09:43:35;2.08;;;1.80;;
61471;SDS011;47337;54.068;12.114;2023-06-22T09:46:01;3.00;;;1.88;;
61471;SDS011;47337;54.068;12.114;2023-06-22T09:48:27;2.70;;;1.90;;
61471;SDS011;47337;54.068;12.114;2023-06-22T09:50:53;2.80;;;2.10;;
61471;SDS011;47337;54.068;12.114;2023-06-22T09:53:18;2.55;;;1.63;;
61471;SDS011;47337;54.068;12.114;2023-06-22T09:55:43;2.00;;;1.77;;
61471;SDS011;47337;54.068;12.114;2023-06-22T09:58:08;2.70;;;1.92;;
61471;SDS011;47337;54.068;12.114;2023-06-22T10:00:34;7.65;;;1.80;;
61471;SDS011;47337;54.068;12.114;2023-06-22T10:02:59;3.97;;;1.83;;
61471;SDS011;47337;54.068;12.114;2023-06-22T10:05:25;2.53;;;1.80;;
61471;SDS011;47337;54.068;12.114;2023-06-22T10:07:50;2.93;;;1.97;;
61471;SDS011;47337;54.068;12.114;2023-06-22T10:10:15;1.48;;;1.30;;
61471;SDS011;47337;54.068;12.114;2023-06-22T10:12:45;3.05;;;1.63;;
61471;SDS011;47337;54.068;12.114;2023-06-22T10:15:11;4.40;;;1.67;;
61471;SDS011;47337;54.068;12.114;2023-06-22T10:17:39;7.15;;;2.05;;
61471;SDS011;47337;54.068;12.114;2023-06-22T10:20:07;1.50;;;1.40;;
61471;SDS011;47337;54.068;12.114;2023-06-22T10:22:40;3.05;;;1.80;;
61471;SDS011;47337;54.068;12.114;2023-06-22T10:25:09;3.15;;;1.95;;
61471;SDS011;47337;54.068;12.114;2023-06-22T10:27:34;2.22;;;1.77;;
61471;SDS011;47337;54.068;12.114;2023-06-22T10:30:00;2.47;;;1.40;;
61471;SDS011;47337;54.068;12.114;2023-06-22T10:32:25;2.10;;;1.45;;
61471;SDS011;47337;54.068;12.114;2023-06-22T10:34:53;2.03;;;1.65;;
61471;SDS011;47337;54.068;12.114;2023-06-22T10:37:18;2.20;;;1.45;;
61471;SDS011;47337;54.068;12.114;2023-06-22T10:39:43;3.65;;;1.52;;
61471;SDS011;47337;54.068;12.114;2023-06-22T10:42:08;4.17;;;1.60;;
61471;SDS011;47337;54.068;12.114;2023-06-22T10:44:34;3.33;;;1.65;;
61471;SDS011;47337;54.068;12.114;2023-06-22T10:46:59;4.57;;;1.88;;
61471;SDS011;47337;54.068;12.114;2023-06-22T10:49:24;2.10;;;1.58;;
61471;SDS011;47337;54.068;12.114;2023-06-22T10:51:50;4.72;;;1.88;;
61471;SDS011;47337;54.068;12.114;2023-06-22T10:54:15;2.08;;;1.70;;
61471;SDS011;47337;54.068;12.114;2023-06-22T10:56:44;1.85;;;1.20;;
61471;SDS011;47337;54.068;12.114;2023-06-22T10:59:12;2.22;;;1.40;;
61471;SDS011;47337;54.068;12.114;2023-06-22T11:01:40;4.05;;;1.60;;
61471;SDS011;47337;54.068;12.114;2023-06-22T11:04:05;3.47;;;1.73;;
61471;SDS011;47337;54.068;12.114;2023-06-22T11:06:30;1.83;;;1.60;;
61471;SDS011;47337;54.068;12.114;2023-06-22T11:08:56;2.13;;;1.90;;
61471;SDS011;47337;54.068;12.114;2023-06-22T11:11:21;2.28;;;1.67;;
61471;SDS011;47337;54.068;12.114;2023-06-22T11:13:46;3.15;;;1.88;;
61471;SDS011;47337;54.068;12.114;2023-06-22T11:16:11;2.47;;;1.45;;
61471;SDS011;47337;54.068;12.114;2023-06-22T11:18:37;1.75;;;1.52;;
61471;SDS011;47337;54.068;12.114;2023-06-22T11:21:02;3.50;;;1.50;;
61471;SDS011;47337;54.068;12.114;2023-06-22T11:23:27;2.20;;;1.63;;
61471;SDS011;47337;54.068;12.114;2023-06-22T11:25:53;3.17;;;1.70;;
61471;SDS011;47337;54.068;12.114;2023-06-22T11:28:21;2.10;;;1.25;;
61471;SDS011;47337;54.068;12.114;2023-06-22T11:30:46;1.88;;;1.65;;
61471;SDS011;47337;54.068;12.114;2023-06-22T11:33:12;4.53;;;2.05;;
61471;SDS011;47337;54.068;12.114;2023-06-22T11:35:37;2.95;;;2.00;;
61471;SDS011;47337;54.068;12.114;2023-06-22T11:38:02;2.72;;;1.95;;
61471;SDS011;47337;54.068;12.114;2023-06-22T11:40:30;4.47;;;2.00;;
61471;SDS011;47337;54.068;12.114;2023-06-22T11:42:55;2.90;;;1.92;;
61471;SDS011;47337;54.068;12.114;2023-06-22T11:45:21;2.63;;;1.63;;
61471;SDS011;47337;54.068;12.114;2023-06-22T11:47:46;2.80;;;1.77;;
61471;SDS011;47337;54.068;12.114;2023-06-22T11:50:11;2.75;;;1.42;;
61471;SDS011;47337;54.068;12.114;2023-06-22T11:52:37;3.22;;;1.70;;
61471;SDS011;47337;54.068;12.114;2023-06-22T11:55:04;5.22;;;1.70;;
61471;SDS011;47337;54.068;12.114;2023-06-22T11:57:33;3.08;;;1.95;;
61471;SDS011;47337;54.068;12.114;2023-06-22T11:59:58;2.38;;;1.60;;
61471;SDS011;47337;54.068;12.114;2023-06-22T12:02:23;2.60;;;1.70;;
61471;SDS011;47337;54.068;12.114;2023-06-22T12:04:51;2.28;;;1.70;;
61471;SDS011;47337;54.068;12.114;2023-06-22T12:07:21;3.50;;;1.58;;
61471;SDS011;47337;54.068;12.114;2023-06-22T12:09:46;3.03;;;1.70;;
61471;SDS011;47337;54.068;12.114;2023-06-22T12:12:11;3.05;;;2.10;;
61471;SDS011;47337;54.068;12.114;2023-06-22T12:14:39;2.47;;;1.65;;
61471;SDS011;47337;54.068;12.114;2023-06-22T12:17:04;5.20;;;2.10;;
61471;SDS011;47337;54.068;12.114;2023-06-22T12:19:29;4.40;;;1.98;;
61471;SDS011;47337;54.068;12.114;2023-06-22T12:21:54;3.97;;;1.70;;
61471;SDS011;47337;54.068;12.114;2023-06-22T12:24:20;2.00;;;1.80;;
61471;SDS011;47337;54.068;12.114;2023-06-22T12:26:45;2.10;;;1.55;;
61471;SDS011;47337;54.068;12.114;2023-06-22T12:29:10;2.53;;;1.98;;
61471;SDS011;47337;54.068;12.114;2023-06-22T12:31:36;2.20;;;1.75;;
61471;SDS011;47337;54.068;12.114;2023-06-22T12:34:01;2.38;;;1.70;;
61471;SDS011;47337;54.068;12.114;2023-06-22T12:36:27;2.30;;;2.10;;
61471;SDS011;47337;54.068;12.114;2023-06-22T12:38:52;3.40;;;1.65;;
61471;SDS011;47337;54.068;12.114;2023-06-22T12:41:17;4.33;;;1.83;;
61471;SDS011;47337;54.068;12.114;2023-06-22T12:43:42;2.08;;;1.65;;
61471;SDS011;47337;54.068;12.114;2023-06-22T12:46:08;2.33;;;1.60;;
61471;SDS011;47337;54.068;12.114;2023-06-22T12:48:35;2.07;;;1.50;;
61471;SDS011;47337;54.068;12.114;2023-06-22T12:51:08;1.73;;;1.40;;
61471;SDS011;47337;54.068;12.114;2023-06-22T12:53:34;1.75;;;1.40;;
61471;SDS011;47337;54.068;12.114;2023-06-22T12:56:01;3.03;;;1.85;;
61471;SDS011;47337;54.068;12.114;2023-06-22T12:58:27;2.28;;;1.73;;
61471;SDS011;47337;54.068;12.114;2023-06-22T13:00:54;3.05;;;1.60;;
61471;SDS011;47337;54.068;12.114;2023-06-22T13:03:19;2.13;;;1.40;;
61471;SDS011;47337;54.068;12.114;2023-06-22T13:05:45;2.33;;;1.63;;
61471;SDS011;47337;54.068;12.114;2023-06-22T13:08:10;1.63;;;1.50;;
61471;SDS011;47337;54.068;12.114;2023-06-22T13:10:36;2.75;;;1.67;;
61471;SDS011;47337;54.068;12.114;2023-06-22T13:13:01;1.92;;;1.15;;
61471;SDS011;47337;54.068;12.114;2023-06-22T13:15:27;1.90;;;1.17;;
61471;SDS011;47337;54.068;12.114;2023-06-22T13:17:55;1.85;;;1.25;;
61471;SDS011;47337;54.068;12.114;2023-06-22T13:20:21;1.25;;;1.08;;
61471;SDS011;47337;54.068;12.114;2023-06-22T13:22:46;1.73;;;1.30;;
61471;SDS011;47337;54.068;12.114;2023-06-22T13:25:14;1.95;;;1.20;;
61471;SDS011;47337;54.068;12.114;2023-06-22T13:27:44;1.88;;;1.50;;
61471;SDS011;47337;54.068;12.114;2023-06-22T13:30:09;2.03;;;1.25;;
61471;SDS011;47337;54.068;12.114;2023-06-22T13:32:35;1.73;;;1.17;;
61471;SDS011;47337;54.068;12.114;2023-06-22T13:35:03;1.80;;;1.30;;
61471;SDS011;47337;54.068;12.114;2023-06-22T13:37:28;1.75;;;0.98;;
61471;SDS011;47337;54.068;12.114;2023-06-22T13:39:53;1.70;;;1.33;;
61471;SDS011;47337;54.068;12.114;2023-06-22T13:42:21;1.63;;;1.20;;
61471;SDS011;47337;54.068;12.114;2023-06-22T13:44:48;1.52;;;1.08;;
61471;SDS011;47337;54.068;12.114;2023-06-22T13:47:16;2.45;;;1.20;;
61471;SDS011;47337;54.068;12.114;2023-06-22T13:49:41;3.00;;;1.27;;
61471;SDS011;47337;54.068;12.114;2023-06-22T13:52:06;1.70;;;1.17;;
61471;SDS011;47337;54.068;12.114;2023-06-22T13:54:36;2.53;;;1.10;;
61471;SDS011;47337;54.068;12.114;2023-06-22T13:57:03;1.40;;;1.02;;
61471;SDS011;47337;54.068;12.114;2023-06-22T13:59:29;1.10;;;0.93;;
61471;SDS011;47337;54.068;12.114;2023-06-22T14:01:54;1.98;;;1.10;;
61471;SDS011;47337;54.068;12.114;2023-06-22T14:04:19;1.52;;;1.10;;
61471;SDS011;47337;54.068;12.114;2023-06-22T14:06:50;1.38;;;1.00;;
61471;SDS011;47337;54.068;12.114;2023-06-22T14:09:15;1.98;;;1.05;;
61471;SDS011;47337;54.068;12.114;2023-06-22T14:11:40;1.10;;;1.00;;
61471;SDS011;47337;54.068;12.114;2023-06-22T14:14:08;2.17;;;1.00;;
61471;SDS011;47337;54.068;12.114;2023-06-22T14:16:33;1.47;;;1.27;;
61471;SDS011;47337;54.068;12.114;2023-06-22T14:18:58;1.10;;;0.87;;
61471;SDS011;47337;54.068;12.114;2023-06-22T14:21:24;1.35;;;1.00;;
61471;SDS011;47337;54.068;12.114;2023-06-22T14:23:49;1.45;;;0.90;;
61471;SDS011;47337;54.068;12.114;2023-06-22T14:26:17;2.35;;;1.10;;
61471;SDS011;47337;54.068;12.114;2023-06-22T14:28:45;2.05;;;0.90;;
61471;SDS011;47337;54.068;12.114;2023-06-22T14:31:15;2.10;;;0.98;;
61471;SDS011;47337;54.068;12.114;2023-06-22T14:33:43;1.58;;;1.10;;
61471;SDS011;47337;54.068;12.114;2023-06-22T14:36:08;1.38;;;0.80;;